createdAt,value
2018-07-13T00:00:53.926Z,56.92
2018-07-13T00:03:25.922Z,55.70
2018-07-13T00:05:58.524Z,56.23
2018-07-13T00:08:32.293Z,57.47
2018-07-13T00:11:05.126Z,55.10
2018-07-13T00:13:45.479Z,55.64
2018-07-13T00:16:18.172Z,55.68
2018-07-13T00:18:50.824Z,57.54
2018-07-13T00:21:23.854Z,55.49
2018-07-13T00:23:56.197Z,57.38
2018-07-13T00:26:28.550Z,57.63
2018-07-13T00:29:01.157Z,57.47
2018-07-13T00:31:33.643Z,57.02
2018-07-13T00:34:05.675Z,55.72
2018-07-13T00:36:38.738Z,56.12
2018-07-13T00:39:13.931Z,56.02
2018-07-13T00:41:46.427Z,55.98
2018-07-13T00:44:19.536Z,57.65
2018-07-13T00:46:51.968Z,58.20
2018-07-13T00:49:24.918Z,57.84
2018-07-13T00:51:57.505Z,57.85
2018-07-13T00:54:30.155Z,57.29
2018-07-13T00:57:03.210Z,58.32
2018-07-13T00:59:35.326Z,57.59
2018-07-13T01:02:07.735Z,56.71
2018-07-13T01:04:39.813Z,56.64
2018-07-13T01:07:12.804Z,56.38
2018-07-13T01:09:45.900Z,57.14
2018-07-13T01:12:18.176Z,55.49
2018-07-13T01:14:50.542Z,56.62
2018-07-13T01:17:27.048Z,57.30
2018-07-13T01:19:59.376Z,55.88
2018-07-13T01:22:32.031Z,56.00
2018-07-13T01:25:04.965Z,55.90
2018-07-13T01:27:37.300Z,55.92
2018-07-13T01:30:10.102Z,55.86
2018-07-13T01:32:42.484Z,55.46
2018-07-13T01:35:15.469Z,56.40
2018-07-13T01:37:47.990Z,56.45
2018-07-13T01:40:20.254Z,56.92
2018-07-13T01:42:53.142Z,55.48
2018-07-13T01:45:25.606Z,55.93
2018-07-13T01:47:58.181Z,55.37
2018-07-13T01:50:30.338Z,56.83
2018-07-13T01:53:03.022Z,57.37
2018-07-13T01:55:35.727Z,56.69
2018-07-13T01:58:08.801Z,57.02
2018-07-13T02:00:41.807Z,56.89
2018-07-13T02:03:13.939Z,56.82
2018-07-13T02:05:46.185Z,56.54
2018-07-13T02:08:18.533Z,55.59
2018-07-13T02:10:50.895Z,61.14
2018-07-13T02:13:23.827Z,63.68
2018-07-13T02:15:56.012Z,64.76
2018-07-13T02:18:28.641Z,63.41
2018-07-13T02:21:01.237Z,66.93
2018-07-13T02:23:33.677Z,65.76
2018-07-13T02:26:06.720Z,66.52
2018-07-13T02:28:38.745Z,66.28
2018-07-13T02:31:11.284Z,67.12
2018-07-13T02:33:43.821Z,64.89
2018-07-13T02:36:15.881Z,67.65
2018-07-13T02:38:48.272Z,67.30
2018-07-13T02:41:20.450Z,65.47
2018-07-13T02:43:52.968Z,67.28
2018-07-13T02:46:25.770Z,67.46
2018-07-13T02:48:58.265Z,66.48
2018-07-13T02:51:31.256Z,65.95
2018-07-13T02:54:03.356Z,66.91
2018-07-13T02:56:36.022Z,67.91
2018-07-13T02:59:08.111Z,67.57
2018-07-13T03:01:40.529Z,68.49
2018-07-13T03:04:13.644Z,66.75
2018-07-13T03:06:47.247Z,67.06
2018-07-13T03:09:19.646Z,67.47
2018-07-13T03:11:52.968Z,65.33
2018-07-13T03:14:26.135Z,65.09
2018-07-13T03:16:57.729Z,66.11
2018-07-13T03:19:30.130Z,66.19
2018-07-13T03:22:02.975Z,66.36
2018-07-13T03:24:35.365Z,66.63
2018-07-13T03:27:07.905Z,67.48
2018-07-13T03:29:40.852Z,66.13
2018-07-13T03:32:13.757Z,65.30
2018-07-13T03:34:46.049Z,66.19
2018-07-13T03:37:18.295Z,66.31
2018-07-13T03:39:49.968Z,64.68
2018-07-13T03:42:21.616Z,64.75
2018-07-13T03:44:54.167Z,64.58
2018-07-13T03:47:26.403Z,64.50
2018-07-13T03:49:59.807Z,65.17
2018-07-13T03:52:32.819Z,65.69
2018-07-13T03:55:06.096Z,65.76
2018-07-13T03:57:38.258Z,66.16
2018-07-13T04:00:11.034Z,64.77
2018-07-13T04:02:43.744Z,64.79
2018-07-13T04:05:17.019Z,64.99
2018-07-13T04:07:49.332Z,66.04
2018-07-13T04:10:22.462Z,66.71
2018-07-13T04:12:54.725Z,66.29
2018-07-13T04:15:27.299Z,65.93
2018-07-13T04:18:00.023Z,55.05
2018-07-13T04:20:32.400Z,55.78
2018-07-13T04:23:05.144Z,55.47
2018-07-13T04:25:38.273Z,55.27
2018-07-13T04:28:11.076Z,57.19
2018-07-13T04:30:45.417Z,58.41
2018-07-13T04:33:17.964Z,58.14
2018-07-13T04:35:50.801Z,61.27
2018-07-13T04:38:23.227Z,61.62
2018-07-13T04:40:55.931Z,62.67
2018-07-13T04:43:28.473Z,62.51
2018-07-13T04:46:36.137Z,65.20
2018-07-13T04:52:45.194Z,65.16
2018-07-13T04:55:54.894Z,67.35
2018-07-13T05:07:56.944Z,66.12
2018-07-13T05:13:55.852Z,67.51
2018-07-13T05:16:51.179Z,68.15
2018-07-13T05:19:51.865Z,68.29
2018-07-13T05:22:54.692Z,68.36
2018-07-13T05:25:57.013Z,65.87
2018-07-13T05:35:04.542Z,66.09
2018-07-13T05:38:00.927Z,66.46
2018-07-13T05:46:44.719Z,67.24
2018-07-13T05:49:28.359Z,65.10
2018-07-13T05:52:17.594Z,66.00
2018-07-13T05:55:11.299Z,66.53
2018-07-13T05:58:05.146Z,66.96
2018-07-13T06:00:58.882Z,67.43
2018-07-13T06:06:54.676Z,66.43
2018-07-13T06:12:48.531Z,64.96
2018-07-13T06:15:43.129Z,65.51
2018-07-13T06:18:35.085Z,65.90
2018-07-13T06:21:28.406Z,66.28
2018-07-13T06:24:25.976Z,66.30
2018-07-13T06:27:17.302Z,66.16
2018-07-13T06:30:11.225Z,65.97
2018-07-13T06:33:05.553Z,66.11
2018-07-13T06:35:56.457Z,65.99
2018-07-13T06:38:50.370Z,65.57
2018-07-13T06:44:37.247Z,65.87
2018-07-13T06:47:24.255Z,65.42
2018-07-13T06:50:10.223Z,65.35
2018-07-13T06:53:04.090Z,65.02
2018-07-13T06:55:57.719Z,64.62
2018-07-13T06:58:46.305Z,65.45
2018-07-13T07:04:44.159Z,65.89
2018-07-13T07:07:33.404Z,65.40
2018-07-13T07:10:16.565Z,64.32
2018-07-13T07:14:10.118Z,64.56
2018-07-13T07:16:57.300Z,64.12
2018-07-13T07:19:43.175Z,63.61
2018-07-13T07:22:30.113Z,63.92
2018-07-13T07:25:10.912Z,65.03
2018-07-13T07:27:53.748Z,65.16
2018-07-13T07:30:39.687Z,64.75
2018-07-13T07:33:28.015Z,63.89
2018-07-13T07:36:14.423Z,64.70
2018-07-13T07:39:09.706Z,64.87
2018-07-13T07:41:54.555Z,63.61
2018-07-13T07:44:37.507Z,63.94
2018-07-13T07:47:18.849Z,64.92
2018-07-13T07:49:59.260Z,64.90
2018-07-13T07:52:39.717Z,65.44
2018-07-13T07:55:24.182Z,64.77
2018-07-13T07:58:05.405Z,63.85
2018-07-13T08:00:48.843Z,64.32
2018-07-13T08:03:29.942Z,64.13
2018-07-13T08:06:14.325Z,64.39
2018-07-13T08:08:59.061Z,63.84
2018-07-13T08:11:46.759Z,64.17
2018-07-13T08:17:19.360Z,62.45
2018-07-13T08:20:07.290Z,62.89
2018-07-13T08:23:06.655Z,63.34
2018-07-13T08:25:57.915Z,63.84
2018-07-13T08:28:46.484Z,62.32
2018-07-13T08:31:34.265Z,63.08
2018-07-13T08:34:19.260Z,63.67
2018-07-13T08:37:07.777Z,62.66
2018-07-13T08:39:56.535Z,61.45
2018-07-13T08:42:42.652Z,60.75
2018-07-13T08:45:32.926Z,60.46
2018-07-13T08:48:17.885Z,62.41
2018-07-13T08:51:05.182Z,60.32
2018-07-13T08:53:52.922Z,61.30
2018-07-13T08:56:34.753Z,60.10
2018-07-13T08:59:20.103Z,60.62
2018-07-13T09:02:03.502Z,60.62
2018-07-13T09:04:50.645Z,60.47
2018-07-13T09:07:47.078Z,60.86
2018-07-13T09:16:38.506Z,60.45
2018-07-13T09:19:23.835Z,58.99
2018-07-13T09:22:06.282Z,59.29
2018-07-13T09:24:51.335Z,59.30
2018-07-13T09:27:36.845Z,61.19
2018-07-13T09:30:22.381Z,61.17
2018-07-13T09:33:10.833Z,62.14
2018-07-13T09:35:57.319Z,62.52
2018-07-13T09:38:46.256Z,60.85
2018-07-13T09:41:34.847Z,61.78
2018-07-13T09:47:32.343Z,62.47
2018-07-13T09:50:20.184Z,63.21
2018-07-13T09:53:07.516Z,63.11
2018-07-13T09:55:48.595Z,63.43
2018-07-13T09:58:37.911Z,66.33
2018-07-13T10:01:17.096Z,72.12
2018-07-13T10:03:55.859Z,72.20
2018-07-13T10:06:32.487Z,72.12
2018-07-13T10:09:10.092Z,71.43
2018-07-13T10:11:46.611Z,71.67
2018-07-13T10:14:21.177Z,71.95
2018-07-13T10:16:55.937Z,71.24
2018-07-13T10:19:31.660Z,70.90
2018-07-13T10:22:09.821Z,70.85
2018-07-13T10:24:44.504Z,70.83
2018-07-13T10:27:20.402Z,70.21
2018-07-13T10:29:57.214Z,70.11
2018-07-13T10:32:33.811Z,68.83
2018-07-13T10:35:11.604Z,69.79
2018-07-13T10:37:46.463Z,69.44
2018-07-13T10:40:18.873Z,67.25
2018-07-13T10:42:51.005Z,69.01
2018-07-13T10:45:24.992Z,68.43
2018-07-13T10:47:57.777Z,68.30
2018-07-13T10:50:32.313Z,67.70
2018-07-13T10:53:05.010Z,66.92
2018-07-13T10:55:37.818Z,68.61
2018-07-13T10:58:12.265Z,68.51
2018-07-13T11:00:48.415Z,71.54
2018-07-13T11:03:23.671Z,69.71
2018-07-13T11:05:57.040Z,70.45
2018-07-13T11:08:29.413Z,69.48
2018-07-13T11:11:02.373Z,69.46
2018-07-13T11:13:36.444Z,69.14
2018-07-13T11:16:09.973Z,68.34
2018-07-13T11:18:42.575Z,68.86
2018-07-13T11:21:14.771Z,68.79
2018-07-13T11:23:47.165Z,68.48
2018-07-13T11:26:20.223Z,68.23
2018-07-13T11:28:52.424Z,70.23
2018-07-13T11:31:25.406Z,69.63
2018-07-13T11:33:58.052Z,62.22
2018-07-13T11:36:30.345Z,63.69
2018-07-13T11:39:02.794Z,63.31
2018-07-13T11:41:35.393Z,64.10
2018-07-13T11:44:07.872Z,64.20
2018-07-13T11:46:39.993Z,63.04
2018-07-13T11:49:12.214Z,61.40
2018-07-13T11:51:44.801Z,61.88
2018-07-13T11:54:17.559Z,63.26
2018-07-13T11:56:50.249Z,63.47
2018-07-13T11:59:22.268Z,65.84
2018-07-13T12:01:55.112Z,65.66
2018-07-13T12:04:27.711Z,64.18
2018-07-13T12:07:00.014Z,64.30
2018-07-13T12:09:32.435Z,62.32
2018-07-13T12:12:04.950Z,62.39
2018-07-13T12:14:37.025Z,64.17
2018-07-13T12:17:10.069Z,63.38
2018-07-13T12:19:42.501Z,63.00
2018-07-13T12:22:14.978Z,61.97
2018-07-13T12:24:47.580Z,62.64
2018-07-13T12:27:20.399Z,63.33
2018-07-13T12:29:52.755Z,64.05
2018-07-13T12:32:25.735Z,64.13
2018-07-13T12:34:58.472Z,63.35
2018-07-13T12:37:31.124Z,64.10
2018-07-13T12:40:03.586Z,64.07
2018-07-13T12:42:40.894Z,63.11
2018-07-13T12:45:13.418Z,58.56
2018-07-13T12:47:46.412Z,60.19
2018-07-13T12:50:18.974Z,62.77
2018-07-13T12:52:52.619Z,65.95
2018-07-13T12:55:25.382Z,66.05
2018-07-13T12:57:58.185Z,67.89
2018-07-13T13:00:30.459Z,67.69
2018-07-13T13:03:02.147Z,67.35
2018-07-13T13:05:34.940Z,66.92
2018-07-13T13:08:07.159Z,68.78
2018-07-13T13:10:39.794Z,61.06
2018-07-13T13:13:14.315Z,66.10
2018-07-13T13:15:46.767Z,67.71
2018-07-13T13:18:19.786Z,68.92
2018-07-13T13:20:52.336Z,68.47
2018-07-13T13:23:25.119Z,68.37
2018-07-13T13:25:57.685Z,67.77
2018-07-13T13:28:30.549Z,68.56
2018-07-13T13:31:02.554Z,66.93
2018-07-13T13:33:40.163Z,67.45
2018-07-13T13:36:12.157Z,68.48
2018-07-13T13:38:45.405Z,69.19
2018-07-13T13:41:17.735Z,69.66
2018-07-13T13:43:50.875Z,69.58
2018-07-13T13:46:23.364Z,67.05
2018-07-13T13:48:56.200Z,69.92
2018-07-13T13:51:28.460Z,69.38
2018-07-13T13:54:00.681Z,69.23
2018-07-13T13:56:33.474Z,69.44
2018-07-13T13:59:06.493Z,69.22
2018-07-13T14:01:38.735Z,69.20
2018-07-13T14:04:11.852Z,70.05
2018-07-13T14:06:44.583Z,70.41
2018-07-13T14:09:17.555Z,70.37
2018-07-13T14:11:50.339Z,70.17
2018-07-13T14:14:23.319Z,68.99
2018-07-13T14:16:55.414Z,69.43
2018-07-13T14:19:27.795Z,70.12
2018-07-13T14:22:00.252Z,70.17
2018-07-13T14:24:32.607Z,70.26
2018-07-13T14:27:05.160Z,69.63
2018-07-13T14:29:37.507Z,69.58
2018-07-13T14:32:10.337Z,69.18
2018-07-13T14:34:43.510Z,69.42
2018-07-13T14:37:16.125Z,69.90
2018-07-13T14:39:48.688Z,69.88
2018-07-13T14:42:21.973Z,68.97
2018-07-13T14:44:54.280Z,68.67
2018-07-13T14:47:26.369Z,69.21
2018-07-13T14:49:58.370Z,68.94
2018-07-13T14:52:39.565Z,68.70
2018-07-13T14:55:11.885Z,68.81
2018-07-13T14:57:43.969Z,69.12
2018-07-13T15:00:16.608Z,69.53
2018-07-13T15:02:48.813Z,69.07
2018-07-13T15:05:21.751Z,68.85
2018-07-13T15:07:54.595Z,68.86
2018-07-13T15:10:27.702Z,69.38
2018-07-13T15:13:00.105Z,69.46
2018-07-13T15:15:36.980Z,68.70
2018-07-13T15:18:09.110Z,69.12
2018-07-13T15:20:42.886Z,69.15
2018-07-13T15:23:15.441Z,69.16
2018-07-13T15:25:48.188Z,69.10
2018-07-13T15:28:20.358Z,68.69
2018-07-13T15:30:53.219Z,68.83
2018-07-13T15:33:25.536Z,68.95
2018-07-13T15:35:57.963Z,69.00
2018-07-13T15:38:30.272Z,69.07
2018-07-13T15:41:03.407Z,69.27
2018-07-13T15:43:35.287Z,67.78
2018-07-13T15:46:17.412Z,66.39
2018-07-13T15:48:49.701Z,65.68
2018-07-13T15:51:22.827Z,64.14
2018-07-13T15:53:55.873Z,63.58
2018-07-13T15:56:28.948Z,62.61
2018-07-13T15:59:01.678Z,62.74
2018-07-13T16:01:34.953Z,62.81
2018-07-13T16:04:07.440Z,61.23
2018-07-13T16:06:40.781Z,61.45
2018-07-13T16:09:13.428Z,60.25
2018-07-13T16:11:45.667Z,60.13
2018-07-13T16:14:17.811Z,59.93
2018-07-13T16:16:50.842Z,60.37
2018-07-13T16:19:23.025Z,59.46
2018-07-13T16:21:56.320Z,59.66
2018-07-13T16:24:30.159Z,59.39
2018-07-13T16:27:02.916Z,58.04
2018-07-13T16:29:36.595Z,58.47
2018-07-13T16:32:09.133Z,57.48
2018-07-13T16:34:41.902Z,58.59
2018-07-13T16:37:14.390Z,59.00
2018-07-13T16:39:46.707Z,59.63
2018-07-13T16:42:19.568Z,57.42
2018-07-13T16:44:52.087Z,59.43
2018-07-13T16:47:25.176Z,59.44
2018-07-13T16:49:58.042Z,59.38
2018-07-13T16:52:30.898Z,57.03
2018-07-13T16:55:04.606Z,58.22
2018-07-13T16:57:37.580Z,56.43
2018-07-13T17:00:11.989Z,56.44
2018-07-13T17:02:45.021Z,56.96
2018-07-13T17:05:18.123Z,56.98
2018-07-13T17:07:51.579Z,56.16
2018-07-13T17:10:23.851Z,57.39
2018-07-13T17:12:56.399Z,58.62
2018-07-13T17:15:28.710Z,58.80
2018-07-13T17:18:01.047Z,52.45
2018-07-13T17:20:33.887Z,51.79
2018-07-13T17:23:06.390Z,50.75
2018-07-13T17:25:39.432Z,51.34
2018-07-13T17:28:12.179Z,53.68
2018-07-13T17:30:44.506Z,54.01
2018-07-13T17:33:17.739Z,56.63
2018-07-13T17:35:50.027Z,57.71
2018-07-13T17:38:22.379Z,56.23
2018-07-13T17:40:55.676Z,56.24
2018-07-13T17:43:28.180Z,56.36
2018-07-13T17:46:01.034Z,58.25
2018-07-13T17:48:33.378Z,57.33
2018-07-13T17:51:06.281Z,57.50
2018-07-13T17:53:39.104Z,58.32
2018-07-13T17:56:11.891Z,58.75
2018-07-13T17:58:44.448Z,57.46
2018-07-13T18:01:17.204Z,58.77
2018-07-13T18:06:26.647Z,59.78
2018-07-13T18:08:59.008Z,61.10
2018-07-13T18:11:31.222Z,61.30
2018-07-13T18:14:03.964Z,61.17
2018-07-13T18:16:36.311Z,60.67
2018-07-13T18:19:08.783Z,60.16
2018-07-13T18:21:41.365Z,60.99
2018-07-13T18:24:15.665Z,60.05
2018-07-13T18:26:53.636Z,60.24
2018-07-13T18:29:29.500Z,61.27
2018-07-13T18:32:02.153Z,61.86
2018-07-13T18:34:35.649Z,61.55
2018-07-13T18:37:09.785Z,60.98
2018-07-13T18:39:43.804Z,56.94
2018-07-13T18:42:17.318Z,58.68
2018-07-13T18:44:49.221Z,59.12
2018-07-13T18:47:21.628Z,60.51
2018-07-13T18:49:53.867Z,59.17
2018-07-13T18:52:26.840Z,61.14
2018-07-13T18:54:58.706Z,61.14
2018-07-13T18:57:30.914Z,60.94
2018-07-13T19:00:03.859Z,62.30
2018-07-13T19:02:35.867Z,61.02
2018-07-13T19:05:08.715Z,59.46
2018-07-13T19:07:42.870Z,60.50
2018-07-13T19:10:15.081Z,60.65
2018-07-13T19:12:47.392Z,58.96
2018-07-13T19:15:19.852Z,57.83
2018-07-13T19:17:52.338Z,59.83
2018-07-13T19:20:25.163Z,59.43
2018-07-13T19:22:58.017Z,59.01
2018-07-13T19:25:30.358Z,59.03
2018-07-13T19:28:02.498Z,57.31
2018-07-13T19:30:35.224Z,56.67
2018-07-13T19:33:08.111Z,59.22
2018-07-13T19:35:40.446Z,60.28
2018-07-13T19:38:13.219Z,58.89
2018-07-13T19:40:45.804Z,60.70
2018-07-13T19:43:17.748Z,61.83
2018-07-13T19:45:50.597Z,59.49
2018-07-13T19:48:23.598Z,61.05
2018-07-13T19:50:56.185Z,62.05
2018-07-13T19:53:28.817Z,61.31
2018-07-13T19:56:01.384Z,59.72
2018-07-13T19:58:33.789Z,58.73
2018-07-13T20:01:06.651Z,59.91
2018-07-13T20:03:38.756Z,60.25
2018-07-13T20:06:10.913Z,58.99
2018-07-13T20:08:43.808Z,59.61
2018-07-13T20:11:16.496Z,60.30
2018-07-13T20:13:48.849Z,59.87
2018-07-13T20:16:20.927Z,60.01
2018-07-13T20:18:53.467Z,58.31
2018-07-13T20:21:25.345Z,59.18
2018-07-13T20:23:57.666Z,59.38
2018-07-13T20:26:29.707Z,60.30
2018-07-13T20:29:01.998Z,59.67
2018-07-13T20:31:34.376Z,60.49
2018-07-13T20:34:06.973Z,60.35
2018-07-13T20:36:39.821Z,60.47
2018-07-13T20:39:12.577Z,59.68
2018-07-13T20:41:45.039Z,58.60
2018-07-13T20:44:17.563Z,59.80
2018-07-13T20:46:49.620Z,60.78
2018-07-13T20:49:21.803Z,59.50
2018-07-13T20:51:54.081Z,60.12
2018-07-13T20:54:26.458Z,60.20
2018-07-13T20:56:59.173Z,59.92
2018-07-13T20:59:31.692Z,60.12
2018-07-13T21:02:03.963Z,60.46
2018-07-13T21:04:36.789Z,59.79
2018-07-13T21:07:09.406Z,59.63
2018-07-13T21:09:42.586Z,59.83
2018-07-13T21:12:15.145Z,60.57
2018-07-13T21:14:48.059Z,58.39
2018-07-13T21:17:20.057Z,58.22
2018-07-13T21:19:53.091Z,59.60
2018-07-13T21:22:25.879Z,61.07
2018-07-13T21:24:58.315Z,58.29
2018-07-13T21:27:30.209Z,59.37
2018-07-13T21:30:02.872Z,60.21
2018-07-13T21:32:35.775Z,56.44
2018-07-13T21:35:08.181Z,57.02
2018-07-13T21:37:40.489Z,58.17
2018-07-13T21:40:13.251Z,58.65
2018-07-13T21:42:46.157Z,57.56
2018-07-13T21:45:18.366Z,60.07
2018-07-13T21:47:50.521Z,60.10
2018-07-13T21:50:23.582Z,59.55
2018-07-13T21:52:56.755Z,59.13
2018-07-13T21:55:29.153Z,57.14
2018-07-13T21:58:01.693Z,60.46
2018-07-13T22:00:34.743Z,57.03
2018-07-13T22:03:07.468Z,58.38
2018-07-13T22:05:40.333Z,59.26
2018-07-13T22:08:13.066Z,57.99
2018-07-13T22:10:45.325Z,59.79
2018-07-13T22:13:17.511Z,58.77
2018-07-13T22:15:50.579Z,58.89
2018-07-13T22:18:22.690Z,59.48
2018-07-13T22:20:55.842Z,59.61
2018-07-13T22:23:28.117Z,60.04
2018-07-13T22:26:00.514Z,57.74
2018-07-13T22:28:33.720Z,58.99
2018-07-13T22:31:06.183Z,61.35
2018-07-13T22:33:38.041Z,59.84
2018-07-13T22:36:10.242Z,60.34
2018-07-13T22:38:43.309Z,62.23
2018-07-13T22:41:15.557Z,62.03
2018-07-13T22:43:47.745Z,63.79
2018-07-13T22:46:20.983Z,60.80
2018-07-13T22:48:53.651Z,59.26
2018-07-13T22:51:26.504Z,59.59
2018-07-13T22:53:58.579Z,59.26
2018-07-13T22:56:31.471Z,61.68
2018-07-13T22:59:04.574Z,60.79
2018-07-13T23:01:36.890Z,61.70
2018-07-13T23:04:09.451Z,60.68
2018-07-13T23:06:42.106Z,59.94
2018-07-13T23:09:14.728Z,62.78
2018-07-13T23:11:47.396Z,60.21
2018-07-13T23:14:19.571Z,63.63
2018-07-13T23:16:52.125Z,62.88
2018-07-13T23:19:24.459Z,60.43
2018-07-13T23:21:58.075Z,61.91
2018-07-13T23:24:30.536Z,61.94
2018-07-13T23:27:03.549Z,61.92
2018-07-13T23:29:36.026Z,61.60
2018-07-13T23:32:08.852Z,61.67
2018-07-13T23:34:40.875Z,61.99
2018-07-13T23:37:13.127Z,58.74
2018-07-13T23:39:45.952Z,60.21
2018-07-13T23:42:18.806Z,61.60
2018-07-13T23:44:51.371Z,61.89
2018-07-13T23:47:23.513Z,61.29
2018-07-13T23:49:56.231Z,61.17
2018-07-13T23:52:29.000Z,59.78
2018-07-13T23:55:01.921Z,59.62
2018-07-13T23:57:34.133Z,59.13
